sensor_id;sensor_type;location;lat;lon;timestamp;temperature;humidity
79140;HTU21D;68546;59.142;37.948;2023-04-28T00:01:36;12.05;58.34
79140;HTU21D;68546;59.142;37.948;2023-04-28T00:04:03;12.04;58.29
79140;HTU21D;68546;59.142;37.948;2023-04-28T00:06:30;12.01;58.24
79140;HTU21D;68546;59.142;37.948;2023-04-28T00:08:56;11.97;58.16
79140;HTU21D;68546;59.142;37.948;2023-04-28T00:11:22;11.94;58.11
79140;HTU21D;68546;59.142;37.948;2023-04-28T00:13:49;11.92;58.09
79140;HTU21D;68546;59.142;37.948;2023-04-28T00:16:15;11.90;58.01
79140;HTU21D;68546;59.142;37.948;2023-04-28T00:18:41;11.87;57.97
79140;HTU21D;68546;59.142;37.948;2023-04-28T00:21:08;11.84;57.90
79140;HTU21D;68546;59.142;37.948;2023-04-28T00:23:34;11.82;57.88
79140;HTU21D;68546;59.142;37.948;2023-04-28T00:26:00;11.79;57.84
79140;HTU21D;68546;59.142;37.948;2023-04-28T00:28:26;11.76;57.82
79140;HTU21D;68546;59.142;37.948;2023-04-28T00:30:53;11.74;57.75
79140;HTU21D;68546;59.142;37.948;2023-04-28T00:33:19;11.73;57.74
79140;HTU21D;68546;59.142;37.948;2023-04-28T00:35:45;11.71;57.67
79140;HTU21D;68546;59.142;37.948;2023-04-28T00:38:12;11.69;57.68
79140;HTU21D;68546;59.142;37.948;2023-04-28T00:40:38;11.68;57.68
79140;HTU21D;68546;59.142;37.948;2023-04-28T00:43:05;11.66;57.70
79140;HTU21D;68546;59.142;37.948;2023-04-28T00:45:31;11.62;57.74
79140;HTU21D;68546;59.142;37.948;2023-04-28T00:47:58;11.61;57.79
79140;HTU21D;68546;59.142;37.948;2023-04-28T00:50:26;11.59;57.84
79140;HTU21D;68546;59.142;37.948;2023-04-28T00:52:53;11.59;57.89
79140;HTU21D;68546;59.142;37.948;2023-04-28T00:55:20;11.57;57.93
79140;HTU21D;68546;59.142;37.948;2023-04-28T00:57:47;11.54;57.96
79140;HTU21D;68546;59.142;37.948;2023-04-28T01:00:14;11.52;58.01
79140;HTU21D;68546;59.142;37.948;2023-04-28T01:02:41;11.49;58.04
79140;HTU21D;68546;59.142;37.948;2023-04-28T01:05:08;11.49;58.08
79140;HTU21D;68546;59.142;37.948;2023-04-28T01:07:35;11.47;58.16
79140;HTU21D;68546;59.142;37.948;2023-04-28T01:10:03;11.46;58.25
79140;HTU21D;68546;59.142;37.948;2023-04-28T01:12:31;11.43;58.29
79140;HTU21D;68546;59.142;37.948;2023-04-28T01:14:58;11.43;58.35
79140;HTU21D;68546;59.142;37.948;2023-04-28T01:17:25;11.40;58.41
79140;HTU21D;68546;59.142;37.948;2023-04-28T01:19:52;11.40;58.50
79140;HTU21D;68546;59.142;37.948;2023-04-28T01:22:18;11.38;58.58
79140;HTU21D;68546;59.142;37.948;2023-04-28T01:24:46;11.37;58.68
79140;HTU21D;68546;59.142;37.948;2023-04-28T01:27:13;11.36;58.77
79140;HTU21D;68546;59.142;37.948;2023-04-28T01:29:41;11.34;58.87
79140;HTU21D;68546;59.142;37.948;2023-04-28T01:32:10;11.36;58.95
79140;HTU21D;68546;59.142;37.948;2023-04-28T01:34:37;11.34;59.03
79140;HTU21D;68546;59.142;37.948;2023-04-28T01:37:05;11.33;59.06
79140;HTU21D;68546;59.142;37.948;2023-04-28T01:39:32;11.34;59.08
79140;HTU21D;68546;59.142;37.948;2023-04-28T01:41:58;11.33;59.09
79140;HTU21D;68546;59.142;37.948;2023-04-28T01:44:25;11.33;59.11
79140;HTU21D;68546;59.142;37.948;2023-04-28T01:46:51;11.32;59.13
79140;HTU21D;68546;59.142;37.948;2023-04-28T01:49:20;11.31;59.12
79140;HTU21D;68546;59.142;37.948;2023-04-28T01:51:47;11.30;59.17
79140;HTU21D;68546;59.142;37.948;2023-04-28T01:54:14;11.30;59.19
79140;HTU21D;68546;59.142;37.948;2023-04-28T01:56:40;11.29;59.25
79140;HTU21D;68546;59.142;37.948;2023-04-28T01:59:07;11.30;59.35
79140;HTU21D;68546;59.142;37.948;2023-04-28T02:01:33;11.29;59.41
79140;HTU21D;68546;59.142;37.948;2023-04-28T02:04:00;11.31;59.49
79140;HTU21D;68546;59.142;37.948;2023-04-28T02:06:26;11.34;59.54
79140;HTU21D;68546;59.142;37.948;2023-04-28T02:08:52;11.36;59.57
79140;HTU21D;68546;59.142;37.948;2023-04-28T02:11:19;11.38;59.51
79140;HTU21D;68546;59.142;37.948;2023-04-28T02:13:46;11.37;59.49
79140;HTU21D;68546;59.142;37.948;2023-04-28T02:16:12;11.38;59.51
79140;HTU21D;68546;59.142;37.948;2023-04-28T02:18:38;11.39;59.57
79140;HTU21D;68546;59.142;37.948;2023-04-28T02:21:11;11.40;59.64
79140;HTU21D;68546;59.142;37.948;2023-04-28T02:23:38;11.43;59.75
79140;HTU21D;68546;59.142;37.948;2023-04-28T02:26:05;11.46;59.77
79140;HTU21D;68546;59.142;37.948;2023-04-28T02:28:31;11.52;59.78
79140;HTU21D;68546;59.142;37.948;2023-04-28T02:31:08;11.54;59.79
79140;HTU21D;68546;59.142;37.948;2023-04-28T02:33:36;11.56;59.75
79140;HTU21D;68546;59.142;37.948;2023-04-28T02:36:03;11.58;59.75
79140;HTU21D;68546;59.142;37.948;2023-04-28T02:38:30;11.62;59.70
79140;HTU21D;68546;59.142;37.948;2023-04-28T02:41:02;11.64;59.66
79140;HTU21D;68546;59.142;37.948;2023-04-28T02:43:30;11.66;59.50
79140;HTU21D;68546;59.142;37.948;2023-04-28T02:45:57;11.66;59.39
79140;HTU21D;68546;59.142;37.948;2023-04-28T02:48:24;11.64;59.38
79140;HTU21D;68546;59.142;37.948;2023-04-28T02:50:52;11.64;59.33
79140;HTU21D;68546;59.142;37.948;2023-04-28T02:53:19;11.62;59.25
79140;HTU21D;68546;59.142;37.948;2023-04-28T02:55:46;11.60;59.21
79140;HTU21D;68546;59.142;37.948;2023-04-28T02:58:13;11.59;59.22
79140;HTU21D;68546;59.142;37.948;2023-04-28T03:00:40;11.59;59.27
79140;HTU21D;68546;59.142;37.948;2023-04-28T03:03:07;11.58;59.28
79140;HTU21D;68546;59.142;37.948;2023-04-28T03:05:33;11.57;59.39
79140;HTU21D;68546;59.142;37.948;2023-04-28T03:08:00;11.59;59.45
79140;HTU21D;68546;59.142;37.948;2023-04-28T03:10:26;11.59;59.47
79140;HTU21D;68546;59.142;37.948;2023-04-28T03:12:53;11.63;59.48
79140;HTU21D;68546;59.142;37.948;2023-04-28T03:15:19;11.62;59.40
79140;HTU21D;68546;59.142;37.948;2023-04-28T03:17:46;11.63;59.38
79140;HTU21D;68546;59.142;37.948;2023-04-28T03:20:12;11.64;59.37
79140;HTU21D;68546;59.142;37.948;2023-04-28T03:22:39;11.66;59.32
79140;HTU21D;68546;59.142;37.948;2023-04-28T03:25:05;11.64;59.36
79140;HTU21D;68546;59.142;37.948;2023-04-28T03:27:37;11.64;59.32
79140;HTU21D;68546;59.142;37.948;2023-04-28T03:30:07;11.67;59.34
79140;HTU21D;68546;59.142;37.948;2023-04-28T03:32:35;11.67;59.35
79140;HTU21D;68546;59.142;37.948;2023-04-28T03:35:02;11.68;59.38
79140;HTU21D;68546;59.142;37.948;2023-04-28T03:37:29;11.68;59.46
79140;HTU21D;68546;59.142;37.948;2023-04-28T03:39:56;11.70;59.45
79140;HTU21D;68546;59.142;37.948;2023-04-28T03:42:22;11.73;59.42
79140;HTU21D;68546;59.142;37.948;2023-04-28T03:45:01;11.73;59.34
79140;HTU21D;68546;59.142;37.948;2023-04-28T03:47:28;11.73;59.35
79140;HTU21D;68546;59.142;37.948;2023-04-28T03:49:54;11.74;59.37
79140;HTU21D;68546;59.142;37.948;2023-04-28T03:52:20;11.75;59.34
79140;HTU21D;68546;59.142;37.948;2023-04-28T03:54:47;11.76;59.35
79140;HTU21D;68546;59.142;37.948;2023-04-28T03:57:13;11.76;59.36
79140;HTU21D;68546;59.142;37.948;2023-04-28T03:59:39;11.77;59.33
79140;HTU21D;68546;59.142;37.948;2023-04-28T04:02:06;11.77;59.35
79140;HTU21D;68546;59.142;37.948;2023-04-28T04:04:33;11.78;59.41
79140;HTU21D;68546;59.142;37.948;2023-04-28T04:06:59;11.81;59.51
79140;HTU21D;68546;59.142;37.948;2023-04-28T04:09:26;11.84;59.51
79140;HTU21D;68546;59.142;37.948;2023-04-28T04:11:53;11.87;59.51
79140;HTU21D;68546;59.142;37.948;2023-04-28T04:14:19;11.90;59.47
79140;HTU21D;68546;59.142;37.948;2023-04-28T04:16:46;11.91;59.33
79140;HTU21D;68546;59.142;37.948;2023-04-28T04:19:15;11.93;59.29
79140;HTU21D;68546;59.142;37.948;2023-04-28T04:21:43;11.96;59.26
79140;HTU21D;68546;59.142;37.948;2023-04-28T04:24:09;11.97;59.16
79140;HTU21D;68546;59.142;37.948;2023-04-28T04:26:36;11.97;59.12
79140;HTU21D;68546;59.142;37.948;2023-04-28T04:29:17;11.97;59.03
79140;HTU21D;68546;59.142;37.948;2023-04-28T04:31:45;11.96;59.09
79140;HTU21D;68546;59.142;37.948;2023-04-28T04:34:12;11.97;59.19
79140;HTU21D;68546;59.142;37.948;2023-04-28T04:36:42;11.98;59.23
79140;HTU21D;68546;59.142;37.948;2023-04-28T04:39:09;12.00;59.23
79140;HTU21D;68546;59.142;37.948;2023-04-28T04:41:35;12.03;59.25
79140;HTU21D;68546;59.142;37.948;2023-04-28T04:44:20;12.06;59.32
79140;HTU21D;68546;59.142;37.948;2023-04-28T04:46:50;12.11;59.26
79140;HTU21D;68546;59.142;37.948;2023-04-28T04:49:19;12.13;59.21
79140;HTU21D;68546;59.142;37.948;2023-04-28T04:51:45;12.16;59.12
79140;HTU21D;68546;59.142;37.948;2023-04-28T04:54:13;12.17;59.12
79140;HTU21D;68546;59.142;37.948;2023-04-28T04:56:42;12.20;59.11
79140;HTU21D;68546;59.142;37.948;2023-04-28T04:59:10;12.23;59.17
79140;HTU21D;68546;59.142;37.948;2023-04-28T05:01:57;12.28;59.18
79140;HTU21D;68546;59.142;37.948;2023-04-28T05:04:23;12.33;59.25
79140;HTU21D;68546;59.142;37.948;2023-04-28T05:06:50;12.41;59.29
79140;HTU21D;68546;59.142;37.948;2023-04-28T05:09:18;12.46;59.24
79140;HTU21D;68546;59.142;37.948;2023-04-28T05:11:45;12.53;59.05
79140;HTU21D;68546;59.142;37.948;2023-04-28T05:14:12;12.57;58.96
79140;HTU21D;68546;59.142;37.948;2023-04-28T05:16:41;12.59;58.87
79140;HTU21D;68546;59.142;37.948;2023-04-28T05:19:32;12.62;58.77
79140;HTU21D;68546;59.142;37.948;2023-04-28T05:21:58;12.63;58.63
79140;HTU21D;68546;59.142;37.948;2023-04-28T05:24:29;12.65;58.57
79140;HTU21D;68546;59.142;37.948;2023-04-28T05:26:59;12.67;58.56
79140;HTU21D;68546;59.142;37.948;2023-04-28T05:29:27;12.70;58.54
79140;HTU21D;68546;59.142;37.948;2023-04-28T05:31:55;12.71;58.55
79140;HTU21D;68546;59.142;37.948;2023-04-28T05:34:23;12.74;58.54
79140;HTU21D;68546;59.142;37.948;2023-04-28T05:36:50;12.76;58.51
79140;HTU21D;68546;59.142;37.948;2023-04-28T05:39:18;12.78;58.61
79140;HTU21D;68546;59.142;37.948;2023-04-28T05:41:45;12.84;58.72
79140;HTU21D;68546;59.142;37.948;2023-04-28T05:44:11;12.91;58.80
79140;HTU21D;68546;59.142;37.948;2023-04-28T05:46:39;12.99;58.77
79140;HTU21D;68546;59.142;37.948;2023-04-28T05:49:05;13.05;58.65
79140;HTU21D;68546;59.142;37.948;2023-04-28T05:51:36;13.12;58.63
79140;HTU21D;68546;59.142;37.948;2023-04-28T05:54:04;13.21;58.55
79140;HTU21D;68546;59.142;37.948;2023-04-28T05:56:35;13.30;58.49
79140;HTU21D;68546;59.142;37.948;2023-04-28T05:59:02;13.37;58.38
79140;HTU21D;68546;59.142;37.948;2023-04-28T06:01:30;13.44;58.32
79140;HTU21D;68546;59.142;37.948;2023-04-28T06:03:57;13.53;58.25
79140;HTU21D;68546;59.142;37.948;2023-04-28T06:06:24;13.62;58.09
79140;HTU21D;68546;59.142;37.948;2023-04-28T06:08:53;13.69;57.99
79140;HTU21D;68546;59.142;37.948;2023-04-28T06:11:19;13.77;57.88
79140;HTU21D;68546;59.142;37.948;2023-04-28T06:13:50;13.85;57.85
79140;HTU21D;68546;59.142;37.948;2023-04-28T06:16:17;13.94;57.75
79140;HTU21D;68546;59.142;37.948;2023-04-28T06:18:44;14.03;57.58
79140;HTU21D;68546;59.142;37.948;2023-04-28T06:21:11;14.11;57.42
79140;HTU21D;68546;59.142;37.948;2023-04-28T06:23:38;14.20;57.23
79140;HTU21D;68546;59.142;37.948;2023-04-28T06:26:06;14.27;57.07
79140;HTU21D;68546;59.142;37.948;2023-04-28T06:28:33;14.35;56.85
79140;HTU21D;68546;59.142;37.948;2023-04-28T06:31:01;14.40;56.67
79140;HTU21D;68546;59.142;37.948;2023-04-28T06:33:28;14.47;56.58
79140;HTU21D;68546;59.142;37.948;2023-04-28T06:35:55;14.53;56.55
79140;HTU21D;68546;59.142;37.948;2023-04-28T06:38:24;14.59;56.41
79140;HTU21D;68546;59.142;37.948;2023-04-28T06:40:54;14.66;56.32
79140;HTU21D;68546;59.142;37.948;2023-04-28T06:43:21;14.73;56.21
79140;HTU21D;68546;59.142;37.948;2023-04-28T06:46:01;14.79;56.16
79140;HTU21D;68546;59.142;37.948;2023-04-28T06:48:30;14.86;55.99
79140;HTU21D;68546;59.142;37.948;2023-04-28T06:50:57;14.93;56.00
79140;HTU21D;68546;59.142;37.948;2023-04-28T06:53:24;14.99;55.97
79140;HTU21D;68546;59.142;37.948;2023-04-28T06:55:52;15.10;55.76
79140;HTU21D;68546;59.142;37.948;2023-04-28T06:58:19;15.17;55.77
79140;HTU21D;68546;59.142;37.948;2023-04-28T07:00:47;15.24;55.59
79140;HTU21D;68546;59.142;37.948;2023-04-28T07:03:15;15.33;55.37
79140;HTU21D;68546;59.142;37.948;2023-04-28T07:05:42;15.40;55.33
79140;HTU21D;68546;59.142;37.948;2023-04-28T07:08:09;15.44;54.91
79140;HTU21D;68546;59.142;37.948;2023-04-28T07:10:36;15.47;54.67
79140;HTU21D;68546;59.142;37.948;2023-04-28T07:13:04;15.49;54.65
79140;HTU21D;68546;59.142;37.948;2023-04-28T07:15:30;15.54;54.59
79140;HTU21D;68546;59.142;37.948;2023-04-28T07:17:57;15.58;54.44
79140;HTU21D;68546;59.142;37.948;2023-04-28T07:20:25;15.65;54.40
79140;HTU21D;68546;59.142;37.948;2023-04-28T07:22:52;15.69;54.33
79140;HTU21D;68546;59.142;37.948;2023-04-28T07:25:19;15.72;54.29
79140;HTU21D;68546;59.142;37.948;2023-04-28T07:27:45;15.77;54.13
79140;HTU21D;68546;59.142;37.948;2023-04-28T07:30:12;15.81;53.97
79140;HTU21D;68546;59.142;37.948;2023-04-28T07:32:39;15.86;53.87
79140;HTU21D;68546;59.142;37.948;2023-04-28T07:35:06;15.89;53.79
79140;HTU21D;68546;59.142;37.948;2023-04-28T07:37:36;15.97;53.84
79140;HTU21D;68546;59.142;37.948;2023-04-28T07:40:04;16.05;53.86
79140;HTU21D;68546;59.142;37.948;2023-04-28T07:42:32;16.14;53.75
79140;HTU21D;68546;59.142;37.948;2023-04-28T07:44:59;16.22;53.66
79140;HTU21D;68546;59.142;37.948;2023-04-28T07:47:26;16.29;53.57
79140;HTU21D;68546;59.142;37.948;2023-04-28T07:49:55;16.39;53.33
79140;HTU21D;68546;59.142;37.948;2023-04-28T07:52:22;16.46;53.28
79140;HTU21D;68546;59.142;37.948;2023-04-28T07:54:48;16.52;53.07
79140;HTU21D;68546;59.142;37.948;2023-04-28T07:57:15;16.59;52.86
79140;HTU21D;68546;59.142;37.948;2023-04-28T07:59:41;16.63;52.64
79140;HTU21D;68546;59.142;37.948;2023-04-28T08:02:08;16.65;52.60
79140;HTU21D;68546;59.142;37.948;2023-04-28T08:04:34;16.69;52.40
79140;HTU21D;68546;59.142;37.948;2023-04-28T08:07:02;16.71;52.38
79140;HTU21D;68546;59.142;37.948;2023-04-28T08:09:29;16.71;52.21
79140;HTU21D;68546;59.142;37.948;2023-04-28T08:11:56;16.70;52.12
79140;HTU21D;68546;59.142;37.948;2023-04-28T08:14:25;16.67;52.14
79140;HTU21D;68546;59.142;37.948;2023-04-28T08:16:52;16.67;52.24
79140;HTU21D;68546;59.142;37.948;2023-04-28T08:19:18;16.69;52.28
79140;HTU21D;68546;59.142;37.948;2023-04-28T08:21:45;16.73;52.40
79140;HTU21D;68546;59.142;37.948;2023-04-28T08:24:14;16.80;52.35
79140;HTU21D;68546;59.142;37.948;2023-04-28T08:26:41;16.88;52.32
79140;HTU21D;68546;59.142;37.948;2023-04-28T08:29:07;16.95;52.24
79140;HTU21D;68546;59.142;37.948;2023-04-28T08:31:34;17.05;52.21
79140;HTU21D;68546;59.142;37.948;2023-04-28T08:34:01;17.15;52.01
79140;HTU21D;68546;59.142;37.948;2023-04-28T08:36:27;17.23;51.94
79140;HTU21D;68546;59.142;37.948;2023-04-28T08:38:58;17.32;51.91
79140;HTU21D;68546;59.142;37.948;2023-04-28T08:41:26;17.40;51.69
79140;HTU21D;68546;59.142;37.948;2023-04-28T08:43:54;17.44;51.37
79140;HTU21D;68546;59.142;37.948;2023-04-28T08:46:21;17.47;51.27
79140;HTU21D;68546;59.142;37.948;2023-04-28T08:48:49;17.49;51.30
79140;HTU21D;68546;59.142;37.948;2023-04-28T08:51:21;17.55;51.35
79140;HTU21D;68546;59.142;37.948;2023-04-28T08:53:53;17.67;51.46
79140;HTU21D;68546;59.142;37.948;2023-04-28T08:56:22;17.79;51.30
79140;HTU21D;68546;59.142;37.948;2023-04-28T08:58:51;17.87;51.04
79140;HTU21D;68546;59.142;37.948;2023-04-28T09:01:18;17.95;50.79
79140;HTU21D;68546;59.142;37.948;2023-04-28T09:03:44;17.99;50.58
79140;HTU21D;68546;59.142;37.948;2023-04-28T09:06:12;18.03;50.43
79140;HTU21D;68546;59.142;37.948;2023-04-28T09:08:39;18.05;50.33
79140;HTU21D;68546;59.142;37.948;2023-04-28T09:11:10;18.09;50.21
79140;HTU21D;68546;59.142;37.948;2023-04-28T09:13:39;18.10;50.14
79140;HTU21D;68546;59.142;37.948;2023-04-28T09:16:07;18.11;50.05
79140;HTU21D;68546;59.142;37.948;2023-04-28T09:18:34;18.12;49.95
79140;HTU21D;68546;59.142;37.948;2023-04-28T09:21:08;18.13;49.98
79140;HTU21D;68546;59.142;37.948;2023-04-28T09:23:47;18.17;50.02
79140;HTU21D;68546;59.142;37.948;2023-04-28T09:26:17;18.19;49.93
79140;HTU21D;68546;59.142;37.948;2023-04-28T09:28:44;18.21;49.86
79140;HTU21D;68546;59.142;37.948;2023-04-28T09:31:37;18.23;49.91
79140;HTU21D;68546;59.142;37.948;2023-04-28T09:34:05;18.22;49.79
79140;HTU21D;68546;59.142;37.948;2023-04-28T09:36:34;18.25;49.92
79140;HTU21D;68546;59.142;37.948;2023-04-28T09:39:00;18.32;49.95
79140;HTU21D;68546;59.142;37.948;2023-04-28T09:41:41;18.42;50.05
79140;HTU21D;68546;59.142;37.948;2023-04-28T09:44:16;18.52;49.85
79140;HTU21D;68546;59.142;37.948;2023-04-28T09:46:45;18.57;49.59
79140;HTU21D;68546;59.142;37.948;2023-04-28T09:49:12;18.58;49.32
79140;HTU21D;68546;59.142;37.948;2023-04-28T09:51:39;18.58;49.23
79140;HTU21D;68546;59.142;37.948;2023-04-28T09:54:06;18.59;49.29
79140;HTU21D;68546;59.142;37.948;2023-04-28T09:56:34;18.59;49.32
79140;HTU21D;68546;59.142;37.948;2023-04-28T09:59:03;18.63;49.43
79140;HTU21D;68546;59.142;37.948;2023-04-28T10:01:39;18.68;49.37
79140;HTU21D;68546;59.142;37.948;2023-04-28T10:04:06;18.71;49.23
79140;HTU21D;68546;59.142;37.948;2023-04-28T10:06:34;18.73;49.14
79140;HTU21D;68546;59.142;37.948;2023-04-28T10:09:04;18.72;49.08
79140;HTU21D;68546;59.142;37.948;2023-04-28T10:11:32;18.73;49.08
79140;HTU21D;68546;59.142;37.948;2023-04-28T10:14:00;18.72;49.07
79140;HTU21D;68546;59.142;37.948;2023-04-28T10:16:30;18.74;49.12
79140;HTU21D;68546;59.142;37.948;2023-04-28T10:18:57;18.76;49.20
79140;HTU21D;68546;59.142;37.948;2023-04-28T10:21:25;18.78;49.12
79140;HTU21D;68546;59.142;37.948;2023-04-28T10:29:32;18.92;49.23
79140;HTU21D;68546;59.142;37.948;2023-04-28T10:32:16;18.99;49.16
79140;HTU21D;68546;59.142;37.948;2023-04-28T10:34:43;19.06;49.05
79140;HTU21D;68546;59.142;37.948;2023-04-28T10:37:10;19.12;48.89
79140;HTU21D;68546;59.142;37.948;2023-04-28T10:42:55;19.28;48.84
79140;HTU21D;68546;59.142;37.948;2023-04-28T10:56:19;19.51;47.92
79140;HTU21D;68546;59.142;37.948;2023-04-28T10:58:47;19.51;47.82
79140;HTU21D;68546;59.142;37.948;2023-04-28T11:07:16;19.54;47.76
79140;HTU21D;68546;59.142;37.948;2023-04-28T11:16:58;19.60;47.72
79140;HTU21D;68546;59.142;37.948;2023-04-28T11:19:31;19.61;47.64
79140;HTU21D;68546;59.142;37.948;2023-04-28T11:22:01;19.61;47.65
79140;HTU21D;68546;59.142;37.948;2023-04-28T11:24:29;19.61;47.67
79140;HTU21D;68546;59.142;37.948;2023-04-28T11:26:57;19.65;47.73
79140;HTU21D;68546;59.142;37.948;2023-04-28T11:29:37;19.68;47.67
79140;HTU21D;68546;59.142;37.948;2023-04-28T11:32:06;19.67;47.55
79140;HTU21D;68546;59.142;37.948;2023-04-28T11:34:33;19.68;47.53
79140;HTU21D;68546;59.142;37.948;2023-04-28T11:37:01;19.68;47.50
79140;HTU21D;68546;59.142;37.948;2023-04-28T11:39:32;19.65;47.49
79140;HTU21D;68546;59.142;37.948;2023-04-28T11:42:00;19.63;47.47
79140;HTU21D;68546;59.142;37.948;2023-04-28T11:44:29;19.62;47.55
79140;HTU21D;68546;59.142;37.948;2023-04-28T11:46:57;19.63;47.66
79140;HTU21D;68546;59.142;37.948;2023-04-28T11:49:30;19.67;47.72
79140;HTU21D;68546;59.142;37.948;2023-04-28T11:52:06;19.69;47.73
79140;HTU21D;68546;59.142;37.948;2023-04-28T11:54:34;19.74;47.80
79140;HTU21D;68546;59.142;37.948;2023-04-28T11:57:03;19.80;47.68
79140;HTU21D;68546;59.142;37.948;2023-04-28T11:59:34;19.84;47.50
79140;HTU21D;68546;59.142;37.948;2023-04-28T12:02:05;19.87;47.39
79140;HTU21D;68546;59.142;37.948;2023-04-28T12:04:36;19.88;47.31
79140;HTU21D;68546;59.142;37.948;2023-04-28T12:07:14;19.88;47.25
79140;HTU21D;68546;59.142;37.948;2023-04-28T12:09:45;19.86;47.23
79140;HTU21D;68546;59.142;37.948;2023-04-28T12:12:15;19.82;49.46
79140;HTU21D;68546;59.142;37.948;2023-04-28T12:14:57;19.65;50.18
79140;HTU21D;68546;59.142;37.948;2023-04-28T12:17:33;19.42;50.53
79140;HTU21D;68546;59.142;37.948;2023-04-28T12:20:02;19.18;51.34
79140;HTU21D;68546;59.142;37.948;2023-04-28T12:22:30;18.99;51.46
79140;HTU21D;68546;59.142;37.948;2023-04-28T12:25:06;18.82;51.98
79140;HTU21D;68546;59.142;37.948;2023-04-28T12:27:34;18.68;52.36
79140;HTU21D;68546;59.142;37.948;2023-04-28T12:30:23;18.55;52.56
79140;HTU21D;68546;59.142;37.948;2023-04-28T12:32:50;18.44;53.78
79140;HTU21D;68546;59.142;37.948;2023-04-28T12:35:16;18.34;54.36
79140;HTU21D;68546;59.142;37.948;2023-04-28T12:37:46;18.23;55.95
79140;HTU21D;68546;59.142;37.948;2023-04-28T12:40:12;18.07;57.15
79140;HTU21D;68546;59.142;37.948;2023-04-28T12:42:39;17.93;58.13
79140;HTU21D;68546;59.142;37.948;2023-04-28T12:45:06;17.78;59.15
79140;HTU21D;68546;59.142;37.948;2023-04-28T12:47:34;17.65;60.15
79140;HTU21D;68546;59.142;37.948;2023-04-28T12:50:01;17.55;61.15
79140;HTU21D;68546;59.142;37.948;2023-04-28T12:52:28;17.49;62.28
79140;HTU21D;68546;59.142;37.948;2023-04-28T12:54:54;17.44;62.98
79140;HTU21D;68546;59.142;37.948;2023-04-28T12:57:20;17.40;63.95
79140;HTU21D;68546;59.142;37.948;2023-04-28T12:59:47;17.35;64.43
79140;HTU21D;68546;59.142;37.948;2023-04-28T13:02:14;17.30;64.86
79140;HTU21D;68546;59.142;37.948;2023-04-28T13:04:40;17.23;65.17
79140;HTU21D;68546;59.142;37.948;2023-04-28T13:07:16;17.18;65.74
79140;HTU21D;68546;59.142;37.948;2023-04-28T13:09:43;17.13;65.95
79140;HTU21D;68546;59.142;37.948;2023-04-28T13:12:10;17.07;66.47
79140;HTU21D;68546;59.142;37.948;2023-04-28T13:14:39;17.04;66.96
79140;HTU21D;68546;59.142;37.948;2023-04-28T13:17:06;17.01;67.60
79140;HTU21D;68546;59.142;37.948;2023-04-28T13:19:33;17.01;68.01
79140;HTU21D;68546;59.142;37.948;2023-04-28T13:21:59;17.00;68.36
79140;HTU21D;68546;59.142;37.948;2023-04-28T13:24:26;17.00;68.77
79140;HTU21D;68546;59.142;37.948;2023-04-28T13:26:52;16.99;68.91
79140;HTU21D;68546;59.142;37.948;2023-04-28T13:29:19;17.00;69.20
79140;HTU21D;68546;59.142;37.948;2023-04-28T13:31:45;16.99;69.30
79140;HTU21D;68546;59.142;37.948;2023-04-28T13:34:12;16.96;69.29
79140;HTU21D;68546;59.142;37.948;2023-04-28T13:36:43;16.95;69.57
79140;HTU21D;68546;59.142;37.948;2023-04-28T13:39:10;16.95;69.85
79140;HTU21D;68546;59.142;37.948;2023-04-28T13:41:38;16.95;70.07
79140;HTU21D;68546;59.142;37.948;2023-04-28T13:44:05;16.95;70.39
79140;HTU21D;68546;59.142;37.948;2023-04-28T13:46:31;16.94;70.61
79140;HTU21D;68546;59.142;37.948;2023-04-28T13:48:58;16.96;70.93
79140;HTU21D;68546;59.142;37.948;2023-04-28T13:51:26;16.98;71.26
79140;HTU21D;68546;59.142;37.948;2023-04-28T13:53:53;16.98;71.32
79140;HTU21D;68546;59.142;37.948;2023-04-28T13:56:19;16.99;71.46
79140;HTU21D;68546;59.142;37.948;2023-04-28T13:58:46;16.99;71.58
79140;HTU21D;68546;59.142;37.948;2023-04-28T14:01:12;17.00;71.85
79140;HTU21D;68546;59.142;37.948;2023-04-28T14:03:39;17.00;71.96
79140;HTU21D;68546;59.142;37.948;2023-04-28T14:06:06;17.00;71.93
79140;HTU21D;68546;59.142;37.948;2023-04-28T14:08:33;17.02;71.84
79140;HTU21D;68546;59.142;37.948;2023-04-28T14:10:59;16.99;71.48
79140;HTU21D;68546;59.142;37.948;2023-04-28T14:13:26;16.99;70.90
79140;HTU21D;68546;59.142;37.948;2023-04-28T14:15:52;16.94;70.55
79140;HTU21D;68546;59.142;37.948;2023-04-28T14:18:19;16.90;70.40
79140;HTU21D;68546;59.142;37.948;2023-04-28T14:20:45;16.86;70.23
79140;HTU21D;68546;59.142;37.948;2023-04-28T14:23:12;16.84;70.19
79140;HTU21D;68546;59.142;37.948;2023-04-28T14:25:39;16.80;70.05
79140;HTU21D;68546;59.142;37.948;2023-04-28T14:28:05;16.77;69.96
79140;HTU21D;68546;59.142;37.948;2023-04-28T14:30:32;16.76;69.87
79140;HTU21D;68546;59.142;37.948;2023-04-28T14:32:58;16.71;69.71
79140;HTU21D;68546;59.142;37.948;2023-04-28T14:35:26;16.67;69.58
79140;HTU21D;68546;59.142;37.948;2023-04-28T14:37:57;16.63;69.58
79140;HTU21D;68546;59.142;37.948;2023-04-28T14:40:24;16.60;69.52
79140;HTU21D;68546;59.142;37.948;2023-04-28T14:42:51;16.57;69.66
79140;HTU21D;68546;59.142;37.948;2023-04-28T14:45:18;16.54;69.73
79140;HTU21D;68546;59.142;37.948;2023-04-28T14:47:44;16.52;69.79
79140;HTU21D;68546;59.142;37.948;2023-04-28T14:50:10;16.51;69.92
79140;HTU21D;68546;59.142;37.948;2023-04-28T14:52:37;16.47;70.10
79140;HTU21D;68546;59.142;37.948;2023-04-28T14:55:04;16.46;70.20
79140;HTU21D;68546;59.142;37.948;2023-04-28T14:57:31;16.45;70.28
79140;HTU21D;68546;59.142;37.948;2023-04-28T15:00:00;16.39;70.32
79140;HTU21D;68546;59.142;37.948;2023-04-28T15:02:27;16.36;70.44
79140;HTU21D;68546;59.142;37.948;2023-04-28T15:04:55;16.32;70.42
79140;HTU21D;68546;59.142;37.948;2023-04-28T15:07:22;16.28;70.77
79140;HTU21D;68546;59.142;37.948;2023-04-28T15:09:49;16.24;71.06
79140;HTU21D;68546;59.142;37.948;2023-04-28T15:12:16;16.18;71.29
79140;HTU21D;68546;59.142;37.948;2023-04-28T15:14:42;16.12;71.51
79140;HTU21D;68546;59.142;37.948;2023-04-28T15:17:09;16.11;71.93
79140;HTU21D;68546;59.142;37.948;2023-04-28T15:19:35;16.03;72.19
79140;HTU21D;68546;59.142;37.948;2023-04-28T15:22:02;15.99;72.54
79140;HTU21D;68546;59.142;37.948;2023-04-28T15:24:28;15.96;72.93
79140;HTU21D;68546;59.142;37.948;2023-04-28T15:26:54;15.93;73.24
79140;HTU21D;68546;59.142;37.948;2023-04-28T15:29:21;15.91;73.35
79140;HTU21D;68546;59.142;37.948;2023-04-28T15:31:47;15.88;73.61
79140;HTU21D;68546;59.142;37.948;2023-04-28T15:34:14;15.85;73.68
79140;HTU21D;68546;59.142;37.948;2023-04-28T15:36:42;15.83;73.83
79140;HTU21D;68546;59.142;37.948;2023-04-28T15:39:08;15.81;74.02
79140;HTU21D;68546;59.142;37.948;2023-04-28T15:41:35;15.80;74.09